sensor_id;sensor_type;location;lat;lon;timestamp;P1;durP1;ratioP1;P2;durP2;ratioP2
19733;SDS011;10018;51.230;7.860;2022-12-11T00:01:45;61.90;;;26.83;;
19733;SDS011;10018;51.230;7.860;2022-12-11T00:04:10;65.60;;;27.77;;
19733;SDS011;10018;51.230;7.860;2022-12-11T00:06:36;62.03;;;26.47;;
19733;SDS011;10018;51.230;7.860;2022-12-11T00:09:02;67.73;;;27.33;;
19733;SDS011;10018;51.230;7.860;2022-12-11T00:11:27;63.70;;;25.67;;
19733;SDS011;10018;51.230;7.860;2022-12-11T00:13:53;61.97;;;26.17;;
19733;SDS011;10018;51.230;7.860;2022-12-11T00:16:19;64.10;;;26.57;;
19733;SDS011;10018;51.230;7.860;2022-12-11T00:18:44;60.33;;;26.60;;
19733;SDS011;10018;51.230;7.860;2022-12-11T00:21:11;64.47;;;26.73;;
19733;SDS011;10018;51.230;7.860;2022-12-11T00:23:38;62.67;;;27.33;;
19733;SDS011;10018;51.230;7.860;2022-12-11T00:26:07;74.63;;;29.13;;
19733;SDS011;10018;51.230;7.860;2022-12-11T00:28:36;71.53;;;26.83;;
19733;SDS011;10018;51.230;7.860;2022-12-11T00:31:02;68.10;;;26.80;;
19733;SDS011;10018;51.230;7.860;2022-12-11T00:33:32;69.47;;;28.00;;
19733;SDS011;10018;51.230;7.860;2022-12-11T00:35:58;70.77;;;28.43;;
19733;SDS011;10018;51.230;7.860;2022-12-11T00:38:23;72.13;;;29.13;;
19733;SDS011;10018;51.230;7.860;2022-12-11T00:40:49;73.97;;;28.03;;
19733;SDS011;10018;51.230;7.860;2022-12-11T00:43:14;77.07;;;29.07;;
19733;SDS011;10018;51.230;7.860;2022-12-11T00:45:41;72.07;;;28.50;;
19733;SDS011;10018;51.230;7.860;2022-12-11T00:48:09;71.73;;;27.77;;
19733;SDS011;10018;51.230;7.860;2022-12-11T00:50:35;74.70;;;27.73;;
19733;SDS011;10018;51.230;7.860;2022-12-11T00:53:02;73.37;;;28.27;;
19733;SDS011;10018;51.230;7.860;2022-12-11T00:55:28;75.70;;;27.63;;
19733;SDS011;10018;51.230;7.860;2022-12-11T00:57:54;73.07;;;29.07;;
19733;SDS011;10018;51.230;7.860;2022-12-11T01:00:20;72.70;;;27.70;;
19733;SDS011;10018;51.230;7.860;2022-12-11T01:02:46;75.30;;;27.83;;
19733;SDS011;10018;51.230;7.860;2022-12-11T01:05:13;72.33;;;28.93;;
19733;SDS011;10018;51.230;7.860;2022-12-11T01:07:39;72.90;;;28.13;;
19733;SDS011;10018;51.230;7.860;2022-12-11T01:10:04;72.53;;;28.33;;
19733;SDS011;10018;51.230;7.860;2022-12-11T01:12:49;82.57;;;28.33;;
19733;SDS011;10018;51.230;7.860;2022-12-11T01:15:21;76.00;;;29.07;;
19733;SDS011;10018;51.230;7.860;2022-12-11T01:17:49;73.30;;;28.47;;
19733;SDS011;10018;51.230;7.860;2022-12-11T01:20:15;81.80;;;29.30;;
19733;SDS011;10018;51.230;7.860;2022-12-11T01:22:42;70.00;;;29.27;;
19733;SDS011;10018;51.230;7.860;2022-12-11T01:25:08;72.97;;;27.97;;
19733;SDS011;10018;51.230;7.860;2022-12-11T01:27:34;79.47;;;28.43;;
19733;SDS011;10018;51.230;7.860;2022-12-11T01:30:01;77.20;;;29.77;;
19733;SDS011;10018;51.230;7.860;2022-12-11T01:32:27;76.60;;;28.83;;
19733;SDS011;10018;51.230;7.860;2022-12-11T01:34:53;79.67;;;29.10;;
19733;SDS011;10018;51.230;7.860;2022-12-11T01:37:19;84.30;;;30.23;;
19733;SDS011;10018;51.230;7.860;2022-12-11T01:39:45;74.53;;;29.33;;
19733;SDS011;10018;51.230;7.860;2022-12-11T01:42:14;77.57;;;29.00;;
19733;SDS011;10018;51.230;7.860;2022-12-11T01:47:07;74.87;;;28.20;;
19733;SDS011;10018;51.230;7.860;2022-12-11T01:49:33;74.17;;;28.80;;
19733;SDS011;10018;51.230;7.860;2022-12-11T01:52:18;81.13;;;28.10;;
19733;SDS011;10018;51.230;7.860;2022-12-11T01:54:46;76.37;;;27.93;;
19733;SDS011;10018;51.230;7.860;2022-12-11T01:57:12;76.90;;;28.10;;
19733;SDS011;10018;51.230;7.860;2022-12-11T01:59:40;75.97;;;27.97;;
19733;SDS011;10018;51.230;7.860;2022-12-11T02:04:44;75.63;;;27.83;;
19733;SDS011;10018;51.230;7.860;2022-12-11T02:07:11;76.50;;;28.70;;
19733;SDS011;10018;51.230;7.860;2022-12-11T02:09:37;72.57;;;28.63;;
19733;SDS011;10018;51.230;7.860;2022-12-11T02:20:28;74.27;;;28.33;;
19733;SDS011;10018;51.230;7.860;2022-12-11T02:23:24;72.17;;;27.37;;
19733;SDS011;10018;51.230;7.860;2022-12-11T02:26:06;72.67;;;28.10;;
19733;SDS011;10018;51.230;7.860;2022-12-11T02:28:58;68.50;;;27.17;;
19733;SDS011;10018;51.230;7.860;2022-12-11T02:31:27;66.50;;;26.27;;
19733;SDS011;10018;51.230;7.860;2022-12-11T02:34:02;65.87;;;25.83;;
19733;SDS011;10018;51.230;7.860;2022-12-11T02:36:34;67.77;;;25.87;;
19733;SDS011;10018;51.230;7.860;2022-12-11T02:39:04;68.47;;;26.53;;
19733;SDS011;10018;51.230;7.860;2022-12-11T02:41:33;66.93;;;25.90;;
19733;SDS011;10018;51.230;7.860;2022-12-11T02:43:59;67.93;;;26.27;;
19733;SDS011;10018;51.230;7.860;2022-12-11T02:46:27;80.93;;;30.73;;
19733;SDS011;10018;51.230;7.860;2022-12-11T02:48:55;67.47;;;27.43;;
19733;SDS011;10018;51.230;7.860;2022-12-11T02:51:27;70.50;;;26.87;;
19733;SDS011;10018;51.230;7.860;2022-12-11T02:53:57;74.60;;;27.00;;
19733;SDS011;10018;51.230;7.860;2022-12-11T02:56:31;68.53;;;25.33;;
19733;SDS011;10018;51.230;7.860;2022-12-11T02:59:05;65.33;;;25.77;;
19733;SDS011;10018;51.230;7.860;2022-12-11T03:01:36;73.33;;;26.07;;
19733;SDS011;10018;51.230;7.860;2022-12-11T03:04:02;65.53;;;24.03;;
19733;SDS011;10018;51.230;7.860;2022-12-11T03:06:31;65.93;;;25.13;;
19733;SDS011;10018;51.230;7.860;2022-12-11T03:09:00;70.83;;;25.57;;
19733;SDS011;10018;51.230;7.860;2022-12-11T03:11:26;60.83;;;24.37;;
19733;SDS011;10018;51.230;7.860;2022-12-11T03:13:51;65.80;;;23.83;;
19733;SDS011;10018;51.230;7.860;2022-12-11T03:16:22;63.20;;;24.07;;
19733;SDS011;10018;51.230;7.860;2022-12-11T03:19:01;61.67;;;23.30;;
19733;SDS011;10018;51.230;7.860;2022-12-11T03:21:51;63.63;;;24.53;;
19733;SDS011;10018;51.230;7.860;2022-12-11T03:24:26;63.80;;;24.57;;
19733;SDS011;10018;51.230;7.860;2022-12-11T03:27:05;61.00;;;23.97;;
19733;SDS011;10018;51.230;7.860;2022-12-11T03:29:57;70.10;;;24.93;;
19733;SDS011;10018;51.230;7.860;2022-12-11T03:32:29;59.90;;;23.03;;
19733;SDS011;10018;51.230;7.860;2022-12-11T03:35:02;58.17;;;21.97;;
19733;SDS011;10018;51.230;7.860;2022-12-11T03:37:35;53.13;;;21.10;;
19733;SDS011;10018;51.230;7.860;2022-12-11T03:40:05;59.90;;;22.27;;
19733;SDS011;10018;51.230;7.860;2022-12-11T03:42:37;59.43;;;21.33;;
19733;SDS011;10018;51.230;7.860;2022-12-11T03:45:05;58.93;;;22.50;;
19733;SDS011;10018;51.230;7.860;2022-12-11T03:47:32;54.27;;;20.37;;
19733;SDS011;10018;51.230;7.860;2022-12-11T03:50:00;51.97;;;20.77;;
19733;SDS011;10018;51.230;7.860;2022-12-11T03:52:28;55.93;;;20.47;;
19733;SDS011;10018;51.230;7.860;2022-12-11T03:54:54;49.00;;;19.63;;
19733;SDS011;10018;51.230;7.860;2022-12-11T03:57:24;55.90;;;20.63;;
19733;SDS011;10018;51.230;7.860;2022-12-11T03:59:53;52.30;;;20.90;;
19733;SDS011;10018;51.230;7.860;2022-12-11T04:02:19;57.67;;;21.17;;
19733;SDS011;10018;51.230;7.860;2022-12-11T04:04:44;54.07;;;20.63;;
19733;SDS011;10018;51.230;7.860;2022-12-11T04:07:10;51.63;;;20.27;;
19733;SDS011;10018;51.230;7.860;2022-12-11T04:09:36;53.60;;;21.40;;
19733;SDS011;10018;51.230;7.860;2022-12-11T04:12:01;51.23;;;20.00;;
19733;SDS011;10018;51.230;7.860;2022-12-11T04:14:27;55.07;;;20.73;;
19733;SDS011;10018;51.230;7.860;2022-12-11T04:17:11;59.97;;;22.60;;
19733;SDS011;10018;51.230;7.860;2022-12-11T04:19:56;58.03;;;21.43;;
19733;SDS011;10018;51.230;7.860;2022-12-11T04:22:40;63.07;;;22.90;;
19733;SDS011;10018;51.230;7.860;2022-12-11T04:25:24;62.57;;;22.00;;
19733;SDS011;10018;51.230;7.860;2022-12-11T04:27:50;57.33;;;22.10;;
19733;SDS011;10018;51.230;7.860;2022-12-11T04:30:20;56.93;;;20.83;;
19733;SDS011;10018;51.230;7.860;2022-12-11T04:32:47;55.10;;;21.43;;
19733;SDS011;10018;51.230;7.860;2022-12-11T04:35:13;48.53;;;19.43;;
19733;SDS011;10018;51.230;7.860;2022-12-11T04:37:39;59.77;;;21.53;;
19733;SDS011;10018;51.230;7.860;2022-12-11T04:40:06;57.13;;;21.27;;
19733;SDS011;10018;51.230;7.860;2022-12-11T04:42:33;53.17;;;20.33;;
19733;SDS011;10018;51.230;7.860;2022-12-11T04:44:59;52.27;;;20.63;;
19733;SDS011;10018;51.230;7.860;2022-12-11T04:47:25;49.03;;;19.47;;
19733;SDS011;10018;51.230;7.860;2022-12-11T04:49:51;61.10;;;24.77;;
19733;SDS011;10018;51.230;7.860;2022-12-11T04:52:17;74.80;;;26.27;;
19733;SDS011;10018;51.230;7.860;2022-12-11T04:54:42;57.80;;;21.97;;
19733;SDS011;10018;51.230;7.860;2022-12-11T04:57:08;61.20;;;22.20;;
19733;SDS011;10018;51.230;7.860;2022-12-11T04:59:34;56.97;;;22.03;;
19733;SDS011;10018;51.230;7.860;2022-12-11T05:01:59;56.90;;;21.57;;
19733;SDS011;10018;51.230;7.860;2022-12-11T05:04:29;52.73;;;19.93;;
19733;SDS011;10018;51.230;7.860;2022-12-11T05:06:55;54.80;;;20.97;;
19733;SDS011;10018;51.230;7.860;2022-12-11T05:09:21;53.27;;;21.27;;
19733;SDS011;10018;51.230;7.860;2022-12-11T05:11:46;57.90;;;21.97;;
19733;SDS011;10018;51.230;7.860;2022-12-11T05:14:12;60.17;;;23.00;;
19733;SDS011;10018;51.230;7.860;2022-12-11T05:16:38;53.10;;;21.03;;
19733;SDS011;10018;51.230;7.860;2022-12-11T05:19:03;53.87;;;21.87;;
19733;SDS011;10018;51.230;7.860;2022-12-11T05:21:29;58.13;;;22.43;;
19733;SDS011;10018;51.230;7.860;2022-12-11T05:23:54;53.97;;;21.03;;
19733;SDS011;10018;51.230;7.860;2022-12-11T05:26:20;62.07;;;22.17;;
19733;SDS011;10018;51.230;7.860;2022-12-11T05:28:47;60.43;;;21.63;;
19733;SDS011;10018;51.230;7.860;2022-12-11T05:31:16;59.40;;;21.57;;
19733;SDS011;10018;51.230;7.860;2022-12-11T05:33:44;52.23;;;19.23;;
19733;SDS011;10018;51.230;7.860;2022-12-11T05:36:21;46.53;;;17.57;;
19733;SDS011;10018;51.230;7.860;2022-12-11T05:38:48;46.97;;;18.90;;
19733;SDS011;10018;51.230;7.860;2022-12-11T05:41:16;54.67;;;19.53;;
19733;SDS011;10018;51.230;7.860;2022-12-11T05:43:43;55.47;;;19.57;;
19733;SDS011;10018;51.230;7.860;2022-12-11T05:48:39;47.83;;;18.70;;
19733;SDS011;10018;51.230;7.860;2022-12-11T05:51:05;49.40;;;18.27;;
19733;SDS011;10018;51.230;7.860;2022-12-11T05:53:32;47.33;;;18.73;;
19733;SDS011;10018;51.230;7.860;2022-12-11T05:56:03;48.23;;;17.87;;
19733;SDS011;10018;51.230;7.860;2022-12-11T05:58:31;41.87;;;16.40;;
19733;SDS011;10018;51.230;7.860;2022-12-11T06:00:58;43.53;;;17.43;;
19733;SDS011;10018;51.230;7.860;2022-12-11T06:03:23;45.60;;;17.90;;
19733;SDS011;10018;51.230;7.860;2022-12-11T06:05:49;48.30;;;18.27;;
19733;SDS011;10018;51.230;7.860;2022-12-11T06:08:15;50.27;;;20.30;;
19733;SDS011;10018;51.230;7.860;2022-12-11T06:10:44;53.83;;;21.80;;
19733;SDS011;10018;51.230;7.860;2022-12-11T06:13:10;52.87;;;21.37;;
19733;SDS011;10018;51.230;7.860;2022-12-11T06:15:36;58.63;;;22.90;;
19733;SDS011;10018;51.230;7.860;2022-12-11T06:18:01;62.57;;;23.60;;
19733;SDS011;10018;51.230;7.860;2022-12-11T06:20:29;59.47;;;21.17;;
19733;SDS011;10018;51.230;7.860;2022-12-11T06:22:58;58.77;;;22.17;;
19733;SDS011;10018;51.230;7.860;2022-12-11T06:25:24;52.60;;;19.90;;
19733;SDS011;10018;51.230;7.860;2022-12-11T06:27:50;51.50;;;19.63;;
19733;SDS011;10018;51.230;7.860;2022-12-11T06:30:16;53.10;;;18.10;;
19733;SDS011;10018;51.230;7.860;2022-12-11T06:32:42;43.70;;;17.93;;
19733;SDS011;10018;51.230;7.860;2022-12-11T06:35:08;49.03;;;17.87;;
19733;SDS011;10018;51.230;7.860;2022-12-11T06:37:34;46.73;;;16.10;;
19733;SDS011;10018;51.230;7.860;2022-12-11T06:40:01;48.87;;;16.77;;
19733;SDS011;10018;51.230;7.860;2022-12-11T06:42:30;51.17;;;18.97;;
19733;SDS011;10018;51.230;7.860;2022-12-11T06:44:56;50.00;;;19.03;;
19733;SDS011;10018;51.230;7.860;2022-12-11T06:47:26;54.43;;;20.50;;
19733;SDS011;10018;51.230;7.860;2022-12-11T06:49:56;47.70;;;18.30;;
19733;SDS011;10018;51.230;7.860;2022-12-11T06:52:22;46.20;;;17.87;;
19733;SDS011;10018;51.230;7.860;2022-12-11T06:54:49;44.70;;;16.03;;
19733;SDS011;10018;51.230;7.860;2022-12-11T06:57:14;51.70;;;19.67;;
19733;SDS011;10018;51.230;7.860;2022-12-11T06:59:40;52.23;;;19.60;;
19733;SDS011;10018;51.230;7.860;2022-12-11T07:02:06;57.43;;;21.17;;
19733;SDS011;10018;51.230;7.860;2022-12-11T07:04:35;60.80;;;22.63;;
19733;SDS011;10018;51.230;7.860;2022-12-11T07:07:01;56.67;;;22.13;;
19733;SDS011;10018;51.230;7.860;2022-12-11T07:09:26;47.17;;;16.73;;
19733;SDS011;10018;51.230;7.860;2022-12-11T07:11:52;47.57;;;17.83;;
19733;SDS011;10018;51.230;7.860;2022-12-11T07:14:18;43.93;;;17.83;;
19733;SDS011;10018;51.230;7.860;2022-12-11T07:16:44;47.97;;;18.97;;
19733;SDS011;10018;51.230;7.860;2022-12-11T07:19:09;46.70;;;18.73;;
19733;SDS011;10018;51.230;7.860;2022-12-11T07:21:35;39.23;;;14.73;;
19733;SDS011;10018;51.230;7.860;2022-12-11T07:24:01;31.90;;;12.03;;
19733;SDS011;10018;51.230;7.860;2022-12-11T07:26:27;32.53;;;12.63;;
19733;SDS011;10018;51.230;7.860;2022-12-11T07:28:55;33.57;;;12.97;;
19733;SDS011;10018;51.230;7.860;2022-12-11T07:31:22;35.93;;;13.77;;
19733;SDS011;10018;51.230;7.860;2022-12-11T07:33:56;35.13;;;14.13;;
19733;SDS011;10018;51.230;7.860;2022-12-11T07:36:23;36.57;;;13.57;;
19733;SDS011;10018;51.230;7.860;2022-12-11T07:38:49;33.57;;;11.93;;
19733;SDS011;10018;51.230;7.860;2022-12-11T07:41:15;28.53;;;10.57;;
19733;SDS011;10018;51.230;7.860;2022-12-11T07:43:41;31.07;;;11.50;;
19733;SDS011;10018;51.230;7.860;2022-12-11T07:46:09;31.07;;;11.80;;
19733;SDS011;10018;51.230;7.860;2022-12-11T07:48:41;31.50;;;12.70;;
19733;SDS011;10018;51.230;7.860;2022-12-11T07:51:09;36.80;;;14.83;;
19733;SDS011;10018;51.230;7.860;2022-12-11T07:53:47;40.10;;;18.30;;
19733;SDS011;10018;51.230;7.860;2022-12-11T07:56:14;40.70;;;16.07;;
19733;SDS011;10018;51.230;7.860;2022-12-11T07:58:41;38.53;;;18.03;;
19733;SDS011;10018;51.230;7.860;2022-12-11T08:01:11;37.80;;;18.73;;
19733;SDS011;10018;51.230;7.860;2022-12-11T08:03:38;45.60;;;21.30;;
19733;SDS011;10018;51.230;7.860;2022-12-11T08:06:04;36.03;;;15.37;;
19733;SDS011;10018;51.230;7.860;2022-12-11T08:08:29;36.03;;;14.37;;
19733;SDS011;10018;51.230;7.860;2022-12-11T08:10:55;38.13;;;16.63;;
19733;SDS011;10018;51.230;7.860;2022-12-11T08:13:24;38.03;;;16.73;;
19733;SDS011;10018;51.230;7.860;2022-12-11T08:15:50;33.63;;;13.60;;
19733;SDS011;10018;51.230;7.860;2022-12-11T08:18:15;32.73;;;13.67;;
19733;SDS011;10018;51.230;7.860;2022-12-11T08:20:41;28.67;;;11.17;;
19733;SDS011;10018;51.230;7.860;2022-12-11T08:23:06;29.40;;;11.47;;
19733;SDS011;10018;51.230;7.860;2022-12-11T08:25:32;29.30;;;11.87;;
19733;SDS011;10018;51.230;7.860;2022-12-11T08:27:57;31.10;;;14.83;;
19733;SDS011;10018;51.230;7.860;2022-12-11T08:30:23;29.33;;;11.97;;
19733;SDS011;10018;51.230;7.860;2022-12-11T08:32:48;28.10;;;12.07;;
19733;SDS011;10018;51.230;7.860;2022-12-11T08:35:14;35.10;;;12.63;;
19733;SDS011;10018;51.230;7.860;2022-12-11T08:37:39;32.00;;;12.67;;
19733;SDS011;10018;51.230;7.860;2022-12-11T08:40:05;27.03;;;10.57;;
19733;SDS011;10018;51.230;7.860;2022-12-11T08:42:31;26.57;;;10.57;;
19733;SDS011;10018;51.230;7.860;2022-12-11T08:44:57;31.00;;;12.33;;
19733;SDS011;10018;51.230;7.860;2022-12-11T08:47:22;34.17;;;15.00;;
19733;SDS011;10018;51.230;7.860;2022-12-11T08:49:48;31.27;;;13.40;;
19733;SDS011;10018;51.230;7.860;2022-12-11T08:52:13;28.13;;;12.00;;
19733;SDS011;10018;51.230;7.860;2022-12-11T08:54:39;27.03;;;11.10;;
19733;SDS011;10018;51.230;7.860;2022-12-11T08:57:05;26.40;;;12.67;;
19733;SDS011;10018;51.230;7.860;2022-12-11T08:59:31;28.60;;;11.53;;
19733;SDS011;10018;51.230;7.860;2022-12-11T09:01:57;29.67;;;11.03;;
19733;SDS011;10018;51.230;7.860;2022-12-11T09:04:22;24.40;;;10.50;;
19733;SDS011;10018;51.230;7.860;2022-12-11T09:06:48;27.93;;;11.60;;
19733;SDS011;10018;51.230;7.860;2022-12-11T09:09:13;27.33;;;11.20;;
19733;SDS011;10018;51.230;7.860;2022-12-11T09:11:39;27.50;;;12.27;;
19733;SDS011;10018;51.230;7.860;2022-12-11T09:14:05;34.57;;;13.77;;
19733;SDS011;10018;51.230;7.860;2022-12-11T09:16:31;26.50;;;10.93;;
19733;SDS011;10018;51.230;7.860;2022-12-11T09:18:57;30.20;;;12.03;;
19733;SDS011;10018;51.230;7.860;2022-12-11T09:21:24;21.03;;;9.17;;
19733;SDS011;10018;51.230;7.860;2022-12-11T09:23:52;21.83;;;9.50;;
19733;SDS011;10018;51.230;7.860;2022-12-11T09:26:22;20.40;;;8.80;;
19733;SDS011;10018;51.230;7.860;2022-12-11T09:28:49;27.63;;;10.83;;
19733;SDS011;10018;51.230;7.860;2022-12-11T09:31:18;22.70;;;10.70;;
19733;SDS011;10018;51.230;7.860;2022-12-11T09:33:47;24.03;;;11.07;;
19733;SDS011;10018;51.230;7.860;2022-12-11T09:36:13;26.43;;;10.90;;
19733;SDS011;10018;51.230;7.860;2022-12-11T09:38:39;26.43;;;11.57;;
19733;SDS011;10018;51.230;7.860;2022-12-11T09:43:47;22.07;;;9.37;;
19733;SDS011;10018;51.230;7.860;2022-12-11T09:46:18;21.07;;;8.60;;
19733;SDS011;10018;51.230;7.860;2022-12-11T09:48:45;18.93;;;8.93;;
19733;SDS011;10018;51.230;7.860;2022-12-11T09:51:26;18.07;;;7.70;;
19733;SDS011;10018;51.230;7.860;2022-12-11T09:54:00;20.87;;;9.47;;
19733;SDS011;10018;51.230;7.860;2022-12-11T09:56:32;20.63;;;9.00;;
19733;SDS011;10018;51.230;7.860;2022-12-11T10:05:54;18.27;;;8.40;;
19733;SDS011;10018;51.230;7.860;2022-12-11T10:14:00;20.57;;;8.30;;
19733;SDS011;10018;51.230;7.860;2022-12-11T10:16:35;17.17;;;7.60;;
19733;SDS011;10018;51.230;7.860;2022-12-11T10:19:13;37.93;;;20.40;;
19733;SDS011;10018;51.230;7.860;2022-12-11T10:21:43;22.53;;;10.33;;
19733;SDS011;10018;51.230;7.860;2022-12-11T10:27:17;20.00;;;8.37;;
19733;SDS011;10018;51.230;7.860;2022-12-11T10:29:45;17.07;;;7.40;;
19733;SDS011;10018;51.230;7.860;2022-12-11T10:32:22;15.30;;;6.90;;
19733;SDS011;10018;51.230;7.860;2022-12-11T10:34:58;17.57;;;7.33;;
19733;SDS011;10018;51.230;7.860;2022-12-11T10:37:26;17.27;;;7.23;;
19733;SDS011;10018;51.230;7.860;2022-12-11T10:39:52;15.50;;;7.10;;
19733;SDS011;10018;51.230;7.860;2022-12-11T10:42:18;19.13;;;9.97;;
19733;SDS011;10018;51.230;7.860;2022-12-11T10:44:55;17.27;;;7.73;;
19733;SDS011;10018;51.230;7.860;2022-12-11T10:47:25;20.33;;;7.50;;
19733;SDS011;10018;51.230;7.860;2022-12-11T10:49:58;19.67;;;8.03;;
19733;SDS011;10018;51.230;7.860;2022-12-11T10:52:31;18.60;;;7.57;;
19733;SDS011;10018;51.230;7.860;2022-12-11T10:55:06;17.07;;;7.47;;
19733;SDS011;10018;51.230;7.860;2022-12-11T10:57:54;17.27;;;7.57;;
19733;SDS011;10018;51.230;7.860;2022-12-11T11:02:55;18.93;;;8.40;;
19733;SDS011;10018;51.230;7.860;2022-12-11T11:05:29;20.20;;;8.20;;
19733;SDS011;10018;51.230;7.860;2022-12-11T11:10:56;20.27;;;9.27;;
19733;SDS011;10018;51.230;7.860;2022-12-11T11:13:24;23.13;;;9.63;;
19733;SDS011;10018;51.230;7.860;2022-12-11T11:16:02;23.00;;;12.53;;
19733;SDS011;10018;51.230;7.860;2022-12-11T11:18:30;24.07;;;11.77;;
19733;SDS011;10018;51.230;7.860;2022-12-11T11:20:57;21.27;;;10.73;;
19733;SDS011;10018;51.230;7.860;2022-12-11T11:23:23;30.93;;;13.60;;
19733;SDS011;10018;51.230;7.860;2022-12-11T11:28:22;19.63;;;9.03;;
19733;SDS011;10018;51.230;7.860;2022-12-11T11:31:10;18.70;;;8.23;;
19733;SDS011;10018;51.230;7.860;2022-12-11T11:33:44;19.87;;;10.20;;
19733;SDS011;10018;51.230;7.860;2022-12-11T11:36:18;21.13;;;10.77;;
19733;SDS011;10018;51.230;7.860;2022-12-11T11:41:48;35.33;;;16.80;;
19733;SDS011;10018;51.230;7.860;2022-12-11T11:44:30;24.00;;;11.67;;
19733;SDS011;10018;51.230;7.860;2022-12-11T11:47:14;60.73;;;36.77;;
19733;SDS011;10018;51.230;7.860;2022-12-11T11:52:31;20.47;;;10.40;;
19733;SDS011;10018;51.230;7.860;2022-12-11T11:55:08;21.73;;;8.77;;
19733;SDS011;10018;51.230;7.860;2022-12-11T11:57:44;20.27;;;8.87;;
19733;SDS011;10018;51.230;7.860;2022-12-11T12:00:22;18.83;;;8.40;;
19733;SDS011;10018;51.230;7.860;2022-12-11T12:02:50;22.10;;;9.60;;
19733;SDS011;10018;51.230;7.860;2022-12-11T12:05:22;20.17;;;8.43;;
19733;SDS011;10018;51.230;7.860;2022-12-11T12:07:58;19.73;;;9.13;;
19733;SDS011;10018;51.230;7.860;2022-12-11T12:21:18;20.83;;;9.60;;
19733;SDS011;10018;51.230;7.860;2022-12-11T12:26:37;21.73;;;10.07;;
19733;SDS011;10018;51.230;7.860;2022-12-11T12:39:51;17.90;;;8.00;;
19733;SDS011;10018;51.230;7.860;2022-12-11T12:45:47;15.93;;;6.70;;
19733;SDS011;10018;51.230;7.860;2022-12-11T12:48:35;17.60;;;7.40;;
19733;SDS011;10018;51.230;7.860;2022-12-11T12:51:00;16.23;;;6.73;;
19733;SDS011;10018;51.230;7.860;2022-12-11T12:53:29;15.00;;;7.50;;
19733;SDS011;10018;51.230;7.860;2022-12-11T12:55:57;16.07;;;6.73;;
19733;SDS011;10018;51.230;7.860;2022-12-11T12:58:27;18.83;;;8.03;;
19733;SDS011;10018;51.230;7.860;2022-12-11T13:01:08;40.70;;;20.83;;
19733;SDS011;10018;51.230;7.860;2022-12-11T13:06:29;19.87;;;7.57;;
19733;SDS011;10018;51.230;7.860;2022-12-11T13:09:08;17.13;;;7.30;;
19733;SDS011;10018;51.230;7.860;2022-12-11T13:11:47;17.20;;;7.30;;
19733;SDS011;10018;51.230;7.860;2022-12-11T13:16:43;21.03;;;7.60;;
19733;SDS011;10018;51.230;7.860;2022-12-11T13:24:44;16.87;;;7.73;;
19733;SDS011;10018;51.230;7.860;2022-12-11T13:27:20;17.47;;;7.60;;
19733;SDS011;10018;51.230;7.860;2022-12-11T13:29:50;17.60;;;7.77;;
19733;SDS011;10018;51.230;7.860;2022-12-11T13:32:28;16.37;;;7.30;;
19733;SDS011;10018;51.230;7.860;2022-12-11T13:34:56;16.83;;;8.00;;
19733;SDS011;10018;51.230;7.860;2022-12-11T13:37:28;20.43;;;8.87;;
19733;SDS011;10018;51.230;7.860;2022-12-11T13:40:06;19.67;;;8.07;;
19733;SDS011;10018;51.230;7.860;2022-12-11T13:42:44;17.60;;;8.43;;
19733;SDS011;10018;51.230;7.860;2022-12-11T13:47:55;15.50;;;7.70;;
19733;SDS011;10018;51.230;7.860;2022-12-11T13:50:23;19.83;;;9.23;;
19733;SDS011;10018;51.230;7.860;2022-12-11T13:52:56;20.03;;;8.67;;
19733;SDS011;10018;51.230;7.860;2022-12-11T13:55:27;20.73;;;9.17;;
19733;SDS011;10018;51.230;7.860;2022-12-11T13:57:55;20.47;;;9.30;;
19733;SDS011;10018;51.230;7.860;2022-12-11T14:00:22;19.80;;;9.27;;
19733;SDS011;10018;51.230;7.860;2022-12-11T14:02:59;21.90;;;10.37;;
19733;SDS011;10018;51.230;7.860;2022-12-11T14:05:28;20.53;;;11.67;;
19733;SDS011;10018;51.230;7.860;2022-12-11T14:07:55;19.23;;;10.07;;
19733;SDS011;10018;51.230;7.860;2022-12-11T14:10:24;21.67;;;10.07;;
19733;SDS011;10018;51.230;7.860;2022-12-11T14:15:26;17.90;;;8.23;;
19733;SDS011;10018;51.230;7.860;2022-12-11T14:17:53;17.50;;;7.73;;
19733;SDS011;10018;51.230;7.860;2022-12-11T14:20:21;18.47;;;8.40;;
19733;SDS011;10018;51.230;7.860;2022-12-11T14:22:50;18.23;;;8.20;;
19733;SDS011;10018;51.230;7.860;2022-12-11T14:25:20;18.97;;;8.33;;
19733;SDS011;10018;51.230;7.860;2022-12-11T14:27:49;19.00;;;8.67;;
19733;SDS011;10018;51.230;7.860;2022-12-11T14:30:21;15.40;;;7.97;;
19733;SDS011;10018;51.230;7.860;2022-12-11T14:32:46;17.13;;;8.27;;
19733;SDS011;10018;51.230;7.860;2022-12-11T14:37:50;20.43;;;8.80;;
19733;SDS011;10018;51.230;7.860;2022-12-11T14:40:17;20.03;;;9.13;;
19733;SDS011;10018;51.230;7.860;2022-12-11T14:42:47;19.83;;;9.37;;
19733;SDS011;10018;51.230;7.860;2022-12-11T14:45:20;16.60;;;8.13;;
19733;SDS011;10018;51.230;7.860;2022-12-11T14:47:56;20.73;;;10.00;;
19733;SDS011;10018;51.230;7.860;2022-12-11T14:52:53;19.60;;;8.80;;
19733;SDS011;10018;51.230;7.860;2022-12-11T14:55:31;18.87;;;8.37;;
19733;SDS011;10018;51.230;7.860;2022-12-11T14:58:02;18.70;;;8.23;;
19733;SDS011;10018;51.230;7.860;2022-12-11T15:00:38;20.63;;;8.83;;
19733;SDS011;10018;51.230;7.860;2022-12-11T15:05:46;16.70;;;8.30;;
19733;SDS011;10018;51.230;7.860;2022-12-11T15:10:40;20.03;;;9.50;;
19733;SDS011;10018;51.230;7.860;2022-12-11T15:13:21;20.30;;;9.57;;
19733;SDS011;10018;51.230;7.860;2022-12-11T15:15:48;20.67;;;9.47;;
19733;SDS011;10018;51.230;7.860;2022-12-11T15:18:23;17.53;;;8.20;;
19733;SDS011;10018;51.230;7.860;2022-12-11T15:20:52;22.40;;;9.07;;
19733;SDS011;10018;51.230;7.860;2022-12-11T15:23:30;19.67;;;9.33;;
19733;SDS011;10018;51.230;7.860;2022-12-11T15:25:59;21.23;;;10.37;;
19733;SDS011;10018;51.230;7.860;2022-12-11T15:28:34;20.87;;;10.20;;
19733;SDS011;10018;51.230;7.860;2022-12-11T15:31:03;20.50;;;9.40;;
19733;SDS011;10018;51.230;7.860;2022-12-11T15:33:49;20.50;;;10.37;;
19733;SDS011;10018;51.230;7.860;2022-12-11T15:36:25;22.13;;;11.17;;
19733;SDS011;10018;51.230;7.860;2022-12-11T15:38:54;23.00;;;11.10;;
19733;SDS011;10018;51.230;7.860;2022-12-11T15:41:20;19.80;;;9.87;;
19733;SDS011;10018;51.230;7.860;2022-12-11T15:43:48;18.63;;;9.70;;
19733;SDS011;10018;51.230;7.860;2022-12-11T15:46:15;21.13;;;10.80;;
19733;SDS011;10018;51.230;7.860;2022-12-11T15:48:41;20.57;;;10.50;;
19733;SDS011;10018;51.230;7.860;2022-12-11T15:51:07;21.67;;;10.90;;
19733;SDS011;10018;51.230;7.860;2022-12-11T15:53:33;24.53;;;11.90;;
19733;SDS011;10018;51.230;7.860;2022-12-11T15:55:59;27.03;;;12.90;;
19733;SDS011;10018;51.230;7.860;2022-12-11T15:58:25;27.63;;;13.47;;
19733;SDS011;10018;51.230;7.860;2022-12-11T16:00:51;25.67;;;12.43;;
19733;SDS011;10018;51.230;7.860;2022-12-11T16:03:18;30.40;;;15.17;;
19733;SDS011;10018;51.230;7.860;2022-12-11T16:05:45;25.23;;;11.67;;
19733;SDS011;10018;51.230;7.860;2022-12-11T16:08:15;22.13;;;10.50;;
19733;SDS011;10018;51.230;7.860;2022-12-11T16:10:43;20.67;;;9.97;;
19733;SDS011;10018;51.230;7.860;2022-12-11T16:13:10;23.17;;;10.80;;
19733;SDS011;10018;51.230;7.860;2022-12-11T16:15:37;21.63;;;10.90;;
19733;SDS011;10018;51.230;7.860;2022-12-11T16:18:08;23.83;;;11.83;;
19733;SDS011;10018;51.230;7.860;2022-12-11T16:20:36;21.23;;;11.07;;